sensor_id;sensor_type;location;lat;lon;timestamp;pressure;altitude;pressure_sealevel;temperature;humidity
71306;BME280;59097;46.858;18.632;2023-03-17T00:00:42;101293.75;;;-0.13;70.14
71306;BME280;59097;46.858;18.632;2023-03-17T00:03:21;101289.56;;;-0.15;70.01
71306;BME280;59097;46.858;18.632;2023-03-17T00:05:55;101290.53;;;-0.16;70.15
71306;BME280;59097;46.858;18.632;2023-03-17T00:08:27;101284.03;;;-0.23;70.30
71306;BME280;59097;46.858;18.632;2023-03-17T00:10:56;101294.47;;;-0.23;70.93
71306;BME280;59097;46.858;18.632;2023-03-17T00:13:25;101299.75;;;-0.25;70.43
71306;BME280;59097;46.858;18.632;2023-03-17T00:15:55;101302.47;;;-0.26;70.18
71306;BME280;59097;46.858;18.632;2023-03-17T00:18:25;101299.88;;;-0.26;70.02
71306;BME280;59097;46.858;18.632;2023-03-17T00:20:53;101273.84;;;-0.40;70.63
71306;BME280;59097;46.858;18.632;2023-03-17T00:23:23;101297.03;;;-0.36;71.14
71306;BME280;59097;46.858;18.632;2023-03-17T00:25:52;101295.84;;;-0.44;70.99
71306;BME280;59097;46.858;18.632;2023-03-17T00:28:22;101305.59;;;-0.48;71.56
71306;BME280;59097;46.858;18.632;2023-03-17T00:30:57;101303.66;;;-0.44;71.53
71306;BME280;59097;46.858;18.632;2023-03-17T00:33:28;101299.28;;;-0.44;71.22
71306;BME280;59097;46.858;18.632;2023-03-17T00:35:56;101288.84;;;-0.44;71.26
71306;BME280;59097;46.858;18.632;2023-03-17T00:38:25;101293.31;;;-0.46;71.75
71306;BME280;59097;46.858;18.632;2023-03-17T00:40:53;101292.56;;;-0.48;72.04
71306;BME280;59097;46.858;18.632;2023-03-17T00:43:21;101293.72;;;-0.52;72.21
71306;BME280;59097;46.858;18.632;2023-03-17T00:45:50;101293.97;;;-0.42;69.80
71306;BME280;59097;46.858;18.632;2023-03-17T00:48:19;101269.03;;;-0.46;69.48
71306;BME280;59097;46.858;18.632;2023-03-17T00:50:49;101285.75;;;-0.36;69.76
71306;BME280;59097;46.858;18.632;2023-03-17T00:53:19;101280.75;;;-0.39;70.12
71306;BME280;59097;46.858;18.632;2023-03-17T00:55:48;101278.50;;;-0.45;70.58
71306;BME280;59097;46.858;18.632;2023-03-17T00:58:23;101284.03;;;-0.50;71.44
71306;BME280;59097;46.858;18.632;2023-03-17T01:00:52;101289.53;;;-0.54;71.74
71306;BME280;59097;46.858;18.632;2023-03-17T01:03:22;101280.87;;;-0.55;71.87
71306;BME280;59097;46.858;18.632;2023-03-17T01:05:52;101259.97;;;-0.68;71.90
71306;BME280;59097;46.858;18.632;2023-03-17T01:08:22;101275.50;;;-0.66;72.93
71306;BME280;59097;46.858;18.632;2023-03-17T01:10:51;101267.25;;;-0.73;73.29
71306;BME280;59097;46.858;18.632;2023-03-17T01:13:19;101265.97;;;-0.80;73.54
71306;BME280;59097;46.858;18.632;2023-03-17T01:15:48;101268.75;;;-0.83;73.97
71306;BME280;59097;46.858;18.632;2023-03-17T01:18:19;101273.84;;;-0.81;73.35
71306;BME280;59097;46.858;18.632;2023-03-17T01:20:49;101271.16;;;-0.80;72.61
71306;BME280;59097;46.858;18.632;2023-03-17T01:23:18;101251.75;;;-0.88;72.11
71306;BME280;59097;46.858;18.632;2023-03-17T01:25:45;101265.66;;;-0.75;72.77
71306;BME280;59097;46.858;18.632;2023-03-17T01:28:16;101271.25;;;-0.81;72.65
71306;BME280;59097;46.858;18.632;2023-03-17T01:30:45;101273.97;;;-0.83;72.78
71306;BME280;59097;46.858;18.632;2023-03-17T01:33:14;101277.59;;;-0.85;73.03
71306;BME280;59097;46.858;18.632;2023-03-17T01:35:43;101269.53;;;-0.95;73.88
71306;BME280;59097;46.858;18.632;2023-03-17T01:38:13;101277.97;;;-0.91;73.70
71306;BME280;59097;46.858;18.632;2023-03-17T01:40:47;101276.38;;;-0.94;73.90
71306;BME280;59097;46.858;18.632;2023-03-17T01:43:20;101278.16;;;-1.08;74.89
71306;BME280;59097;46.858;18.632;2023-03-17T01:49:15;101282.25;;;-1.04;74.84
71306;BME280;59097;46.858;18.632;2023-03-17T01:52:01;101283.19;;;-1.05;74.84
71306;BME280;59097;46.858;18.632;2023-03-17T01:59:55;101283.56;;;-1.11;75.55
71306;BME280;59097;46.858;18.632;2023-03-17T02:02:30;101280.94;;;-1.11;75.61
71306;BME280;59097;46.858;18.632;2023-03-17T02:05:00;101284.41;;;-1.11;75.60
71306;BME280;59097;46.858;18.632;2023-03-17T02:07:30;101282.72;;;-1.12;76.30
71306;BME280;59097;46.858;18.632;2023-03-17T02:10:01;101284.03;;;-1.19;76.37
71306;BME280;59097;46.858;18.632;2023-03-17T02:12:30;101288.56;;;-1.22;76.46
71306;BME280;59097;46.858;18.632;2023-03-17T02:14:58;101286.91;;;-1.23;76.68
71306;BME280;59097;46.858;18.632;2023-03-17T02:17:27;101290.44;;;-1.24;76.94
71306;BME280;59097;46.858;18.632;2023-03-17T02:19:55;101293.97;;;-1.25;77.74
71306;BME280;59097;46.858;18.632;2023-03-17T02:22:24;101296.84;;;-1.30;77.70
71306;BME280;59097;46.858;18.632;2023-03-17T02:24:55;101291.16;;;-1.37;77.54
71306;BME280;59097;46.858;18.632;2023-03-17T02:27:29;101286.06;;;-1.38;77.68
71306;BME280;59097;46.858;18.632;2023-03-17T02:30:01;101268.41;;;-1.47;77.81
71306;BME280;59097;46.858;18.632;2023-03-17T02:32:33;101280.09;;;-1.40;78.54
71306;BME280;59097;46.858;18.632;2023-03-17T02:35:03;101283.94;;;-1.46;78.02
71306;BME280;59097;46.858;18.632;2023-03-17T02:37:32;101283.53;;;-1.54;78.02
71306;BME280;59097;46.858;18.632;2023-03-17T02:40:00;101294.59;;;-1.50;78.21
71306;BME280;59097;46.858;18.632;2023-03-17T02:42:30;101295.59;;;-1.53;78.28
71306;BME280;59097;46.858;18.632;2023-03-17T02:44:58;101300.81;;;-1.53;78.95
71306;BME280;59097;46.858;18.632;2023-03-17T02:47:26;101298.19;;;-1.53;78.70
71306;BME280;59097;46.858;18.632;2023-03-17T02:49:55;101303.56;;;-1.56;78.70
71306;BME280;59097;46.858;18.632;2023-03-17T02:52:24;101293.56;;;-1.62;78.83
71306;BME280;59097;46.858;18.632;2023-03-17T02:54:52;101291.13;;;-1.65;79.53
71306;BME280;59097;46.858;18.632;2023-03-17T02:57:20;101310.56;;;-1.56;79.80
71306;BME280;59097;46.858;18.632;2023-03-17T02:59:49;101312.59;;;-1.61;79.41
71306;BME280;59097;46.858;18.632;2023-03-17T03:02:17;101305.25;;;-1.69;79.81
71306;BME280;59097;46.858;18.632;2023-03-17T03:04:45;101318.03;;;-1.66;80.11
71306;BME280;59097;46.858;18.632;2023-03-17T03:07:14;101319.16;;;-1.70;80.04
71306;BME280;59097;46.858;18.632;2023-03-17T03:09:43;101312.38;;;-1.72;80.20
71306;BME280;59097;46.858;18.632;2023-03-17T03:12:11;101323.62;;;-1.72;80.71
71306;BME280;59097;46.858;18.632;2023-03-17T03:14:40;101325.37;;;-1.72;80.80
71306;BME280;59097;46.858;18.632;2023-03-17T03:17:08;101319.34;;;-1.73;80.86
71306;BME280;59097;46.858;18.632;2023-03-17T03:19:37;101320.06;;;-1.71;80.87
71306;BME280;59097;46.858;18.632;2023-03-17T03:22:06;101300.56;;;-1.78;81.21
71306;BME280;59097;46.858;18.632;2023-03-17T03:24:34;101312.84;;;-1.66;81.22
71306;BME280;59097;46.858;18.632;2023-03-17T03:27:03;101304.03;;;-1.63;81.38
71306;BME280;59097;46.858;18.632;2023-03-17T03:29:31;101302.09;;;-1.60;81.27
71306;BME280;59097;46.858;18.632;2023-03-17T03:31:59;101288.69;;;-1.68;81.23
71306;BME280;59097;46.858;18.632;2023-03-17T03:34:27;101300.97;;;-1.56;81.17
71306;BME280;59097;46.858;18.632;2023-03-17T03:36:56;101303.50;;;-1.54;81.14
71306;BME280;59097;46.858;18.632;2023-03-17T03:39:24;101299.97;;;-1.53;81.05
71306;BME280;59097;46.858;18.632;2023-03-17T03:41:53;101300.91;;;-1.54;80.94
71306;BME280;59097;46.858;18.632;2023-03-17T03:44:25;101303.00;;;-1.61;81.50
71306;BME280;59097;46.858;18.632;2023-03-17T03:46:53;101309.72;;;-1.57;81.45
71306;BME280;59097;46.858;18.632;2023-03-17T03:49:21;101306.38;;;-1.59;81.42
71306;BME280;59097;46.858;18.632;2023-03-17T03:51:49;101292.03;;;-1.66;81.41
71306;BME280;59097;46.858;18.632;2023-03-17T03:54:18;101290.28;;;-1.65;81.72
71306;BME280;59097;46.858;18.632;2023-03-17T03:56:46;101299.78;;;-1.64;81.72
71306;BME280;59097;46.858;18.632;2023-03-17T03:59:14;101302.66;;;-1.69;82.10
71306;BME280;59097;46.858;18.632;2023-03-17T04:01:43;101307.75;;;-1.67;82.42
71306;BME280;59097;46.858;18.632;2023-03-17T04:04:12;101305.75;;;-1.78;83.23
71306;BME280;59097;46.858;18.632;2023-03-17T04:06:40;101301.56;;;-1.95;84.10
71306;BME280;59097;46.858;18.632;2023-03-17T04:09:08;101308.19;;;-2.05;85.12
71306;BME280;59097;46.858;18.632;2023-03-17T04:11:37;101310.59;;;-2.02;84.11
71306;BME280;59097;46.858;18.632;2023-03-17T04:14:05;101292.03;;;-2.10;84.07
71306;BME280;59097;46.858;18.632;2023-03-17T04:16:33;101291.84;;;-2.07;83.66
71306;BME280;59097;46.858;18.632;2023-03-17T04:19:01;101290.06;;;-2.06;83.68
71306;BME280;59097;46.858;18.632;2023-03-17T04:21:29;101296.22;;;-2.07;83.86
71306;BME280;59097;46.858;18.632;2023-03-17T04:23:57;101291.25;;;-2.12;83.99
71306;BME280;59097;46.858;18.632;2023-03-17T04:26:26;101297.97;;;-2.08;83.83
71306;BME280;59097;46.858;18.632;2023-03-17T04:28:54;101292.69;;;-2.06;84.61
71306;BME280;59097;46.858;18.632;2023-03-17T04:31:22;101285.41;;;-2.15;85.04
71306;BME280;59097;46.858;18.632;2023-03-17T04:33:52;101287.06;;;-2.14;84.76
71306;BME280;59097;46.858;18.632;2023-03-17T04:36:22;101299.06;;;-2.12;84.32
71306;BME280;59097;46.858;18.632;2023-03-17T04:38:50;101299.91;;;-2.11;84.26
71306;BME280;59097;46.858;18.632;2023-03-17T04:41:19;101300.84;;;-2.12;84.37
71306;BME280;59097;46.858;18.632;2023-03-17T04:43:47;101299.81;;;-2.10;84.19
71306;BME280;59097;46.858;18.632;2023-03-17T04:46:16;101303.50;;;-2.14;84.35
71306;BME280;59097;46.858;18.632;2023-03-17T04:48:44;101318.09;;;-2.11;84.40
71306;BME280;59097;46.858;18.632;2023-03-17T04:51:12;101317.66;;;-2.19;84.25
71306;BME280;59097;46.858;18.632;2023-03-17T04:53:40;101313.41;;;-2.20;84.02
71306;BME280;59097;46.858;18.632;2023-03-17T04:56:08;101318.84;;;-2.25;84.16
71306;BME280;59097;46.858;18.632;2023-03-17T04:58:37;101319.19;;;-2.15;84.01
71306;BME280;59097;46.858;18.632;2023-03-17T05:01:06;101324.97;;;-2.10;84.31
71306;BME280;59097;46.858;18.632;2023-03-17T05:03:35;101331.59;;;-2.05;84.47
71306;BME280;59097;46.858;18.632;2023-03-17T05:06:03;101324.53;;;-2.03;84.18
71306;BME280;59097;46.858;18.632;2023-03-17T05:08:32;101312.72;;;-2.08;84.06
71306;BME280;59097;46.858;18.632;2023-03-17T05:11:00;101328.63;;;-1.99;84.13
71306;BME280;59097;46.858;18.632;2023-03-17T05:13:28;101334.31;;;-1.92;84.42
71306;BME280;59097;46.858;18.632;2023-03-17T05:15:57;101254.59;;;-2.37;84.65
71306;BME280;59097;46.858;18.632;2023-03-17T05:18:27;101328.53;;;-1.81;84.37
71306;BME280;59097;46.858;18.632;2023-03-17T05:20:56;101336.88;;;-1.76;84.76
71306;BME280;59097;46.858;18.632;2023-03-17T05:23:24;101332.25;;;-1.71;84.89
71306;BME280;59097;46.858;18.632;2023-03-17T05:25:52;101345.25;;;-1.71;84.26
71306;BME280;59097;46.858;18.632;2023-03-17T05:28:21;101334.03;;;-1.72;84.40
71306;BME280;59097;46.858;18.632;2023-03-17T05:30:49;101343.59;;;-1.58;84.56
71306;BME280;59097;46.858;18.632;2023-03-17T05:33:18;101340.75;;;-1.54;84.40
71306;BME280;59097;46.858;18.632;2023-03-17T05:35:50;101352.66;;;-1.50;84.32
71306;BME280;59097;46.858;18.632;2023-03-17T05:38:18;101341.78;;;-1.42;84.82
71306;BME280;59097;46.858;18.632;2023-03-17T05:40:50;101344.69;;;-1.33;84.93
71306;BME280;59097;46.858;18.632;2023-03-17T05:43:20;101325.09;;;-1.38;84.74
71306;BME280;59097;46.858;18.632;2023-03-17T05:45:48;101344.03;;;-1.36;85.54
71306;BME280;59097;46.858;18.632;2023-03-17T05:48:17;101289.44;;;-1.66;86.02
71306;BME280;59097;46.858;18.632;2023-03-17T05:50:45;101345.63;;;-1.34;87.11
71306;BME280;59097;46.858;18.632;2023-03-17T05:53:14;101346.28;;;-1.16;85.70
71306;BME280;59097;46.858;18.632;2023-03-17T05:55:43;101348.22;;;-1.19;85.14
71306;BME280;59097;46.858;18.632;2023-03-17T05:58:11;101346.66;;;-1.36;84.88
71306;BME280;59097;46.858;18.632;2023-03-17T06:00:39;101295.63;;;-1.24;83.49
71306;BME280;59097;46.858;18.632;2023-03-17T06:03:08;101346.03;;;-0.97;83.11
71306;BME280;59097;46.858;18.632;2023-03-17T06:05:36;101342.41;;;-0.67;82.57
71306;BME280;59097;46.858;18.632;2023-03-17T06:08:04;101340.91;;;-0.30;81.41
71306;BME280;59097;46.858;18.632;2023-03-17T06:10:35;101349.00;;;0.07;80.85
71306;BME280;59097;46.858;18.632;2023-03-17T06:13:03;101338.22;;;-0.02;81.08
71306;BME280;59097;46.858;18.632;2023-03-17T06:15:58;101331.97;;;0.28;79.48
71306;BME280;59097;46.858;18.632;2023-03-17T06:18:26;101346.69;;;0.54;78.44
71306;BME280;59097;46.858;18.632;2023-03-17T06:20:55;101340.88;;;0.63;78.14
71306;BME280;59097;46.858;18.632;2023-03-17T06:23:24;101339.84;;;0.78;78.98
71306;BME280;59097;46.858;18.632;2023-03-17T06:25:52;101290.66;;;0.59;78.07
71306;BME280;59097;46.858;18.632;2023-03-17T06:28:21;101341.91;;;1.23;76.82
71306;BME280;59097;46.858;18.632;2023-03-17T06:30:49;101341.91;;;1.23;74.93
71306;BME280;59097;46.858;18.632;2023-03-17T06:33:18;101352.97;;;1.40;73.73
71306;BME280;59097;46.858;18.632;2023-03-17T06:35:47;101353.00;;;1.76;71.69
71306;BME280;59097;46.858;18.632;2023-03-17T06:38:15;101364.25;;;1.89;69.96
71306;BME280;59097;46.858;18.632;2023-03-17T06:40:50;101300.63;;;1.65;67.56
71306;BME280;59097;46.858;18.632;2023-03-17T06:43:19;101371.06;;;2.26;67.48
71306;BME280;59097;46.858;18.632;2023-03-17T06:45:49;101374.84;;;2.46;66.77
71306;BME280;59097;46.858;18.632;2023-03-17T06:48:19;101374.97;;;2.44;64.72
71306;BME280;59097;46.858;18.632;2023-03-17T06:50:47;101381.81;;;2.58;64.51
71306;BME280;59097;46.858;18.632;2023-03-17T06:53:16;101369.22;;;2.74;64.72
71306;BME280;59097;46.858;18.632;2023-03-17T06:55:45;101370.91;;;2.97;64.99
71306;BME280;59097;46.858;18.632;2023-03-17T06:58:13;101384.19;;;3.29;64.17
71306;BME280;59097;46.858;18.632;2023-03-17T07:00:42;101373.78;;;3.83;62.52
71306;BME280;59097;46.858;18.632;2023-03-17T07:03:12;101377.03;;;4.07;62.39
71306;BME280;59097;46.858;18.632;2023-03-17T07:05:40;101384.97;;;3.85;61.54
71306;BME280;59097;46.858;18.632;2023-03-17T07:08:09;101386.31;;;4.22;61.14
71306;BME280;59097;46.858;18.632;2023-03-17T07:10:40;101381.50;;;3.96;62.21
71306;BME280;59097;46.858;18.632;2023-03-17T07:13:10;101385.69;;;3.87;63.14
71306;BME280;59097;46.858;18.632;2023-03-17T07:15:39;101385.53;;;4.11;62.48
71306;BME280;59097;46.858;18.632;2023-03-17T07:18:07;101390.91;;;4.41;63.68
71306;BME280;59097;46.858;18.632;2023-03-17T07:20:36;101388.59;;;4.47;61.44
71306;BME280;59097;46.858;18.632;2023-03-17T07:23:05;101394.28;;;4.53;61.17
71306;BME280;59097;46.858;18.632;2023-03-17T07:25:33;101385.78;;;4.60;60.53
71306;BME280;59097;46.858;18.632;2023-03-17T07:28:03;101396.31;;;4.81;59.64
71306;BME280;59097;46.858;18.632;2023-03-17T07:30:31;101379.09;;;4.88;58.78
71306;BME280;59097;46.858;18.632;2023-03-17T07:33:00;101397.16;;;5.02;58.95
71306;BME280;59097;46.858;18.632;2023-03-17T07:35:29;101396.19;;;5.03;59.14
71306;BME280;59097;46.858;18.632;2023-03-17T07:37:58;101394.75;;;5.20;59.90
71306;BME280;59097;46.858;18.632;2023-03-17T07:40:27;101395.09;;;5.26;58.47
71306;BME280;59097;46.858;18.632;2023-03-17T07:42:55;101386.37;;;5.35;58.48
71306;BME280;59097;46.858;18.632;2023-03-17T07:45:23;101393.44;;;5.35;57.95
71306;BME280;59097;46.858;18.632;2023-03-17T07:47:52;101391.34;;;5.59;57.16
71306;BME280;59097;46.858;18.632;2023-03-17T07:50:21;101398.06;;;5.82;57.15
71306;BME280;59097;46.858;18.632;2023-03-17T07:52:49;101398.06;;;5.82;55.02
71306;BME280;59097;46.858;18.632;2023-03-17T07:55:17;101393.06;;;5.79;56.15
71306;BME280;59097;46.858;18.632;2023-03-17T07:57:45;101399.25;;;6.08;55.24
71306;BME280;59097;46.858;18.632;2023-03-17T08:00:14;101402.34;;;6.32;55.30
71306;BME280;59097;46.858;18.632;2023-03-17T08:02:44;101403.84;;;6.54;53.27
71306;BME280;59097;46.858;18.632;2023-03-17T08:05:26;101397.25;;;7.25;49.83
71306;BME280;59097;46.858;18.632;2023-03-17T08:07:54;101399.56;;;6.91;49.80
71306;BME280;59097;46.858;18.632;2023-03-17T08:10:22;101392.16;;;7.05;51.08
71306;BME280;59097;46.858;18.632;2023-03-17T08:12:50;101401.12;;;7.21;49.87
71306;BME280;59097;46.858;18.632;2023-03-17T08:15:20;101400.22;;;7.03;49.47
71306;BME280;59097;46.858;18.632;2023-03-17T08:17:48;101389.75;;;7.30;49.20
71306;BME280;59097;46.858;18.632;2023-03-17T08:20:19;101391.66;;;7.38;48.48
71306;BME280;59097;46.858;18.632;2023-03-17T08:22:47;101383.13;;;7.53;50.03
71306;BME280;59097;46.858;18.632;2023-03-17T08:25:24;101392.22;;;7.69;48.79
71306;BME280;59097;46.858;18.632;2023-03-17T08:27:52;101389.59;;;7.69;49.97
71306;BME280;59097;46.858;18.632;2023-03-17T08:30:21;101379.09;;;7.49;48.41
71306;BME280;59097;46.858;18.632;2023-03-17T08:32:49;101389.66;;;8.04;47.17
71306;BME280;59097;46.858;18.632;2023-03-17T08:35:17;101384.50;;;9.42;42.20
71306;BME280;59097;46.858;18.632;2023-03-17T08:37:46;101382.72;;;12.01;36.77
71306;BME280;59097;46.858;18.632;2023-03-17T08:40:17;101374.28;;;14.05;32.07
71306;BME280;59097;46.858;18.632;2023-03-17T08:42:48;101376.56;;;12.91;30.92
71306;BME280;59097;46.858;18.632;2023-03-17T08:45:16;101383.53;;;15.83;29.98
71306;BME280;59097;46.858;18.632;2023-03-17T08:47:45;101381.56;;;15.64;29.24
71306;BME280;59097;46.858;18.632;2023-03-17T08:50:21;101361.09;;;13.67;28.66
71306;BME280;59097;46.858;18.632;2023-03-17T08:52:52;101375.72;;;13.42;29.01
71306;BME280;59097;46.858;18.632;2023-03-17T08:55:21;101365.53;;;14.74;29.15
71306;BME280;59097;46.858;18.632;2023-03-17T08:57:49;101355.59;;;14.05;28.49
71306;BME280;59097;46.858;18.632;2023-03-17T09:00:18;101365.22;;;14.63;28.03
71306;BME280;59097;46.858;18.632;2023-03-17T09:02:47;101369.84;;;14.75;26.17
71306;BME280;59097;46.858;18.632;2023-03-17T09:05:19;101368.63;;;15.33;26.36
71306;BME280;59097;46.858;18.632;2023-03-17T09:07:47;101344.09;;;13.68;27.13
71306;BME280;59097;46.858;18.632;2023-03-17T09:10:16;101360.44;;;16.43;26.07
71306;BME280;59097;46.858;18.632;2023-03-17T09:12:49;101358.38;;;14.32;27.01
71306;BME280;59097;46.858;18.632;2023-03-17T09:15:18;101364.94;;;14.15;26.10
71306;BME280;59097;46.858;18.632;2023-03-17T09:17:46;101353.88;;;13.97;26.65
71306;BME280;59097;46.858;18.632;2023-03-17T09:20:16;101358.44;;;14.03;27.17
71306;BME280;59097;46.858;18.632;2023-03-17T09:22:46;101355.31;;;11.61;27.57
71306;BME280;59097;46.858;18.632;2023-03-17T09:25:16;101360.78;;;11.60;29.04
71306;BME280;59097;46.858;18.632;2023-03-17T09:27:48;101340.22;;;12.60;28.86
71306;BME280;59097;46.858;18.632;2023-03-17T09:30:17;101356.94;;;13.79;26.99
71306;BME280;59097;46.858;18.632;2023-03-17T09:32:45;101328.16;;;11.82;28.35
71306;BME280;59097;46.858;18.632;2023-03-17T09:35:14;101346.81;;;12.27;28.77
71306;BME280;59097;46.858;18.632;2023-03-17T09:37:43;101348.34;;;13.19;27.13
71306;BME280;59097;46.858;18.632;2023-03-17T09:40:19;101337.94;;;11.43;29.43
71306;BME280;59097;46.858;18.632;2023-03-17T09:43:02;101312.97;;;11.60;27.93
71306;BME280;59097;46.858;18.632;2023-03-17T09:45:36;101347.81;;;11.65;27.75
71306;BME280;59097;46.858;18.632;2023-03-17T09:50:59;101339.13;;;10.37;30.81
71306;BME280;59097;46.858;18.632;2023-03-17T09:53:33;101335.09;;;10.25;33.36
71306;BME280;59097;46.858;18.632;2023-03-17T09:56:21;101326.91;;;9.86;31.46
71306;BME280;59097;46.858;18.632;2023-03-17T09:58:57;101339.63;;;9.74;32.84
71306;BME280;59097;46.858;18.632;2023-03-17T10:01:27;101334.56;;;9.47;31.81
71306;BME280;59097;46.858;18.632;2023-03-17T10:03:56;101307.03;;;8.98;31.55
71306;BME280;59097;46.858;18.632;2023-03-17T10:06:32;101335.41;;;9.14;32.00
71306;BME280;59097;46.858;18.632;2023-03-17T10:14:57;101310.06;;;9.45;31.53
71306;BME280;59097;46.858;18.632;2023-03-17T10:17:31;101293.75;;;9.74;32.82
71306;BME280;59097;46.858;18.632;2023-03-17T10:20:10;101315.84;;;9.98;30.57
71306;BME280;59097;46.858;18.632;2023-03-17T10:22:44;101318.50;;;9.98;30.90
71306;BME280;59097;46.858;18.632;2023-03-17T10:25:19;101324.28;;;10.02;32.41
71306;BME280;59097;46.858;18.632;2023-03-17T10:30:48;101312.19;;;10.07;31.13
71306;BME280;59097;46.858;18.632;2023-03-17T10:33:17;101304.81;;;10.19;32.50
71306;BME280;59097;46.858;18.632;2023-03-17T10:35:45;101304.78;;;10.27;31.13
71306;BME280;59097;46.858;18.632;2023-03-17T10:38:20;101298.50;;;10.36;31.90
71306;BME280;59097;46.858;18.632;2023-03-17T10:41:00;101303.31;;;10.57;31.34
71306;BME280;59097;46.858;18.632;2023-03-17T10:43:36;101299.62;;;10.58;29.36
71306;BME280;59097;46.858;18.632;2023-03-17T10:46:24;101291.97;;;9.82;32.21
71306;BME280;59097;46.858;18.632;2023-03-17T10:48:56;101291.37;;;10.21;31.59
71306;BME280;59097;46.858;18.632;2023-03-17T10:51:32;101291.72;;;10.26;30.92
71306;BME280;59097;46.858;18.632;2023-03-17T10:54:09;101292.53;;;10.18;30.46
71306;BME280;59097;46.858;18.632;2023-03-17T10:56:40;101294.31;;;10.09;30.89
71306;BME280;59097;46.858;18.632;2023-03-17T10:59:27;101285.75;;;10.40;30.67
71306;BME280;59097;46.858;18.632;2023-03-17T11:02:00;101276.47;;;10.44;30.34
71306;BME280;59097;46.858;18.632;2023-03-17T11:04:38;101266.03;;;10.34;30.37
71306;BME280;59097;46.858;18.632;2023-03-17T11:09:47;101269.00;;;10.39;30.59
71306;BME280;59097;46.858;18.632;2023-03-17T11:12:53;101240.16;;;9.96;29.68
71306;BME280;59097;46.858;18.632;2023-03-17T11:15:22;101253.94;;;10.16;30.48
71306;BME280;59097;46.858;18.632;2023-03-17T11:17:57;101251.94;;;10.42;30.70
71306;BME280;59097;46.858;18.632;2023-03-17T11:23:23;101244.97;;;10.08;30.38
71306;BME280;59097;46.858;18.632;2023-03-17T11:26:04;101232.22;;;10.20;30.37
71306;BME280;59097;46.858;18.632;2023-03-17T11:28:38;101235.72;;;10.21;30.93
71306;BME280;59097;46.858;18.632;2023-03-17T11:31:17;101240.78;;;9.82;30.54
71306;BME280;59097;46.858;18.632;2023-03-17T11:33:51;101240.19;;;10.12;31.92
71306;BME280;59097;46.858;18.632;2023-03-17T11:36:29;101236.50;;;9.89;29.95
71306;BME280;59097;46.858;18.632;2023-03-17T11:39:07;101230.72;;;10.26;31.96
71306;BME280;59097;46.858;18.632;2023-03-17T11:41:50;101234.34;;;10.57;32.00
71306;BME280;59097;46.858;18.632;2023-03-17T11:50:17;101217.44;;;9.69;29.91
71306;BME280;59097;46.858;18.632;2023-03-17T11:53:15;101205.56;;;10.14;30.63
71306;BME280;59097;46.858;18.632;2023-03-17T11:55:56;101195.12;;;10.20;31.23
71306;BME280;59097;46.858;18.632;2023-03-17T12:00:57;101182.56;;;10.14;31.03
71306;BME280;59097;46.858;18.632;2023-03-17T12:03:39;101176.56;;;10.20;30.90
71306;BME280;59097;46.858;18.632;2023-03-17T12:06:16;101171.91;;;10.30;30.96
71306;BME280;59097;46.858;18.632;2023-03-17T12:08:52;101179.22;;;10.20;30.53
71306;BME280;59097;46.858;18.632;2023-03-17T12:11:26;101174.56;;;10.30;31.07
71306;BME280;59097;46.858;18.632;2023-03-17T12:16:42;101162.94;;;10.39;29.88
71306;BME280;59097;46.858;18.632;2023-03-17T12:19:26;101163.47;;;10.10;30.98
71306;BME280;59097;46.858;18.632;2023-03-17T12:22:00;101117.94;;;9.99;31.57
71306;BME280;59097;46.858;18.632;2023-03-17T12:27:35;101165.94;;;10.28;32.17
71306;BME280;59097;46.858;18.632;2023-03-17T12:32:54;101153.19;;;10.40;31.79
71306;BME280;59097;46.858;18.632;2023-03-17T12:35:26;101151.72;;;9.81;29.78
71306;BME280;59097;46.858;18.632;2023-03-17T12:38:10;101152.03;;;10.10;31.46
71306;BME280;59097;46.858;18.632;2023-03-17T12:54:44;101128.31;;;10.25;30.62
71306;BME280;59097;46.858;18.632;2023-03-17T12:57:19;101118.19;;;10.44;31.17
71306;BME280;59097;46.858;18.632;2023-03-17T12:59:55;101116.91;;;10.08;29.89
71306;BME280;59097;46.858;18.632;2023-03-17T13:04:58;101115.75;;;10.35;29.82
71306;BME280;59097;46.858;18.632;2023-03-17T13:07:54;101106.25;;;10.40;30.25
71306;BME280;59097;46.858;18.632;2023-03-17T13:10:43;101076.34;;;10.16;30.06
71306;BME280;59097;46.858;18.632;2023-03-17T13:15:53;101094.47;;;10.43;31.34
71306;BME280;59097;46.858;18.632;2023-03-17T13:18:32;101091.50;;;10.38;30.06
71306;BME280;59097;46.858;18.632;2023-03-17T13:21:14;101091.19;;;10.33;30.32
71306;BME280;59097;46.858;18.632;2023-03-17T13:23:46;101094.87;;;10.24;30.42
71306;BME280;59097;46.858;18.632;2023-03-17T13:27:00;101097.84;;;10.29;31.05
71306;BME280;59097;46.858;18.632;2023-03-17T13:32:32;101099.16;;;10.25;30.92
71306;BME280;59097;46.858;18.632;2023-03-17T13:35:19;101089.75;;;10.06;30.49
71306;BME280;59097;46.858;18.632;2023-03-17T13:46:42;101077.69;;;9.95;31.19
71306;BME280;59097;46.858;18.632;2023-03-17T13:52:02;101067.22;;;10.10;31.47
71306;BME280;59097;46.858;18.632;2023-03-17T13:54:49;101040.28;;;9.90;31.24
71306;BME280;59097;46.858;18.632;2023-03-17T13:59:56;101067.75;;;10.14;31.16
71306;BME280;59097;46.858;18.632;2023-03-17T14:02:29;101037.13;;;9.79;31.16
71306;BME280;59097;46.858;18.632;2023-03-17T14:05:03;101062.25;;;10.15;31.67
71306;BME280;59097;46.858;18.632;2023-03-17T14:08:02;101061.09;;;10.18;31.32
71306;BME280;59097;46.858;18.632;2023-03-17T14:10:32;101061.75;;;10.11;31.38
71306;BME280;59097;46.858;18.632;2023-03-17T14:15:59;101054.16;;;10.00;31.70
71306;BME280;59097;46.858;18.632;2023-03-17T14:18:33;101055.66;;;10.03;32.01
71306;BME280;59097;46.858;18.632;2023-03-17T14:21:04;101052.50;;;9.99;31.86
71306;BME280;59097;46.858;18.632;2023-03-17T14:23:39;101040.44;;;9.89;31.64
71306;BME280;59097;46.858;18.632;2023-03-17T14:26:09;101038.94;;;9.86;32.02